sensor_id;sensor_type;location;lat;lon;timestamp;P1;durP1;ratioP1;P2;durP2;ratioP2
1679;SDS011;838;51.794;12.258;2023-07-02T00:01:45;4.50;;;2.23;;
1679;SDS011;838;51.794;12.258;2023-07-02T00:04:12;6.70;;;1.90;;
1679;SDS011;838;51.794;12.258;2023-07-02T00:06:43;3.30;;;1.67;;
1679;SDS011;838;51.794;12.258;2023-07-02T00:09:10;3.90;;;1.80;;
1679;SDS011;838;51.794;12.258;2023-07-02T00:11:37;4.27;;;2.23;;
1679;SDS011;838;51.794;12.258;2023-07-02T00:14:04;3.83;;;2.00;;
1679;SDS011;838;51.794;12.258;2023-07-02T00:16:30;3.80;;;2.27;;
1679;SDS011;838;51.794;12.258;2023-07-02T00:18:56;4.00;;;2.33;;
1679;SDS011;838;51.794;12.258;2023-07-02T00:21:22;3.30;;;2.00;;
1679;SDS011;838;51.794;12.258;2023-07-02T00:23:53;6.10;;;1.90;;
1679;SDS011;838;51.794;12.258;2023-07-02T00:26:22;3.90;;;2.20;;
1679;SDS011;838;51.794;12.258;2023-07-02T00:28:48;4.43;;;2.10;;
1679;SDS011;838;51.794;12.258;2023-07-02T00:31:14;4.13;;;2.00;;
1679;SDS011;838;51.794;12.258;2023-07-02T00:33:40;3.97;;;2.37;;
1679;SDS011;838;51.794;12.258;2023-07-02T00:36:05;3.50;;;1.80;;
1679;SDS011;838;51.794;12.258;2023-07-02T00:38:31;4.50;;;2.63;;
1679;SDS011;838;51.794;12.258;2023-07-02T00:40:57;3.60;;;2.00;;
1679;SDS011;838;51.794;12.258;2023-07-02T00:43:23;3.93;;;2.40;;
1679;SDS011;838;51.794;12.258;2023-07-02T00:45:48;4.83;;;2.57;;
1679;SDS011;838;51.794;12.258;2023-07-02T00:48:14;3.60;;;2.20;;
1679;SDS011;838;51.794;12.258;2023-07-02T00:50:40;3.87;;;2.40;;
1679;SDS011;838;51.794;12.258;2023-07-02T00:53:06;3.23;;;1.90;;
1679;SDS011;838;51.794;12.258;2023-07-02T00:55:32;4.10;;;2.40;;
1679;SDS011;838;51.794;12.258;2023-07-02T00:57:57;5.40;;;2.47;;
1679;SDS011;838;51.794;12.258;2023-07-02T01:00:23;3.90;;;2.10;;
1679;SDS011;838;51.794;12.258;2023-07-02T01:02:55;3.40;;;1.80;;
1679;SDS011;838;51.794;12.258;2023-07-02T01:05:25;4.70;;;2.27;;
1679;SDS011;838;51.794;12.258;2023-07-02T01:07:57;3.73;;;2.43;;
1679;SDS011;838;51.794;12.258;2023-07-02T01:10:23;4.10;;;2.60;;
1679;SDS011;838;51.794;12.258;2023-07-02T01:12:49;3.90;;;2.30;;
1679;SDS011;838;51.794;12.258;2023-07-02T01:15:15;3.60;;;2.30;;
1679;SDS011;838;51.794;12.258;2023-07-02T01:17:41;5.10;;;2.70;;
1679;SDS011;838;51.794;12.258;2023-07-02T01:20:08;3.77;;;2.20;;
1679;SDS011;838;51.794;12.258;2023-07-02T01:22:35;4.10;;;2.37;;
1679;SDS011;838;51.794;12.258;2023-07-02T01:25:00;3.97;;;2.37;;
1679;SDS011;838;51.794;12.258;2023-07-02T01:27:28;3.60;;;2.10;;
1679;SDS011;838;51.794;12.258;2023-07-02T01:29:54;4.00;;;2.30;;
1679;SDS011;838;51.794;12.258;2023-07-02T01:32:20;4.20;;;2.30;;
1679;SDS011;838;51.794;12.258;2023-07-02T01:34:47;3.53;;;2.27;;
1679;SDS011;838;51.794;12.258;2023-07-02T01:37:18;4.00;;;2.07;;
1679;SDS011;838;51.794;12.258;2023-07-02T01:39:44;3.77;;;2.17;;
1679;SDS011;838;51.794;12.258;2023-07-02T01:42:15;4.13;;;2.03;;
1679;SDS011;838;51.794;12.258;2023-07-02T01:44:42;3.40;;;1.70;;
1679;SDS011;838;51.794;12.258;2023-07-02T01:47:11;3.70;;;2.10;;
1679;SDS011;838;51.794;12.258;2023-07-02T01:49:37;4.17;;;2.23;;
1679;SDS011;838;51.794;12.258;2023-07-02T01:52:03;4.27;;;2.40;;
1679;SDS011;838;51.794;12.258;2023-07-02T01:54:31;4.00;;;2.40;;
1679;SDS011;838;51.794;12.258;2023-07-02T01:56:57;3.30;;;1.50;;
1679;SDS011;838;51.794;12.258;2023-07-02T01:59:23;3.80;;;2.20;;
1679;SDS011;838;51.794;12.258;2023-07-02T02:01:49;3.60;;;2.27;;
1679;SDS011;838;51.794;12.258;2023-07-02T02:04:15;3.80;;;2.30;;
1679;SDS011;838;51.794;12.258;2023-07-02T02:06:41;3.60;;;1.93;;
1679;SDS011;838;51.794;12.258;2023-07-02T02:09:07;4.10;;;2.40;;
1679;SDS011;838;51.794;12.258;2023-07-02T02:11:34;3.70;;;1.80;;
1679;SDS011;838;51.794;12.258;2023-07-02T02:14:05;4.90;;;2.20;;
1679;SDS011;838;51.794;12.258;2023-07-02T02:16:31;3.70;;;2.30;;
1679;SDS011;838;51.794;12.258;2023-07-02T02:18:58;4.40;;;2.17;;
1679;SDS011;838;51.794;12.258;2023-07-02T02:21:25;4.90;;;2.30;;
1679;SDS011;838;51.794;12.258;2023-07-02T02:23:50;3.50;;;2.30;;
1679;SDS011;838;51.794;12.258;2023-07-02T02:26:16;4.50;;;2.37;;
1679;SDS011;838;51.794;12.258;2023-07-02T02:28:42;3.93;;;2.30;;
1679;SDS011;838;51.794;12.258;2023-07-02T02:31:08;4.53;;;2.57;;
1679;SDS011;838;51.794;12.258;2023-07-02T02:33:34;5.33;;;2.10;;
1679;SDS011;838;51.794;12.258;2023-07-02T02:36:00;4.10;;;2.40;;
1679;SDS011;838;51.794;12.258;2023-07-02T02:38:29;4.13;;;2.33;;
1679;SDS011;838;51.794;12.258;2023-07-02T02:40:55;4.33;;;2.40;;
1679;SDS011;838;51.794;12.258;2023-07-02T02:43:20;3.93;;;2.37;;
1679;SDS011;838;51.794;12.258;2023-07-02T02:45:47;3.90;;;2.50;;
1679;SDS011;838;51.794;12.258;2023-07-02T02:48:13;6.90;;;2.60;;
1679;SDS011;838;51.794;12.258;2023-07-02T02:50:38;4.33;;;2.30;;
1679;SDS011;838;51.794;12.258;2023-07-02T02:53:06;4.30;;;2.30;;
1679;SDS011;838;51.794;12.258;2023-07-02T02:55:32;3.60;;;2.23;;
1679;SDS011;838;51.794;12.258;2023-07-02T02:57:58;5.00;;;2.80;;
1679;SDS011;838;51.794;12.258;2023-07-02T03:00:24;5.00;;;2.13;;
1679;SDS011;838;51.794;12.258;2023-07-02T03:02:50;3.60;;;1.80;;
1679;SDS011;838;51.794;12.258;2023-07-02T03:05:15;4.83;;;2.53;;
1679;SDS011;838;51.794;12.258;2023-07-02T03:07:41;4.43;;;2.53;;
1679;SDS011;838;51.794;12.258;2023-07-02T03:10:07;4.00;;;2.30;;
1679;SDS011;838;51.794;12.258;2023-07-02T03:12:33;3.83;;;2.37;;
1679;SDS011;838;51.794;12.258;2023-07-02T03:14:59;4.60;;;2.70;;
1679;SDS011;838;51.794;12.258;2023-07-02T03:17:25;3.80;;;2.27;;
1679;SDS011;838;51.794;12.258;2023-07-02T03:19:51;4.17;;;2.53;;
1679;SDS011;838;51.794;12.258;2023-07-02T03:22:16;7.50;;;2.33;;
1679;SDS011;838;51.794;12.258;2023-07-02T03:24:42;4.87;;;2.80;;
1679;SDS011;838;51.794;12.258;2023-07-02T03:27:08;4.70;;;2.73;;
1679;SDS011;838;51.794;12.258;2023-07-02T03:29:34;4.10;;;2.83;;
1679;SDS011;838;51.794;12.258;2023-07-02T03:32:00;4.00;;;2.67;;
1679;SDS011;838;51.794;12.258;2023-07-02T03:34:26;4.60;;;2.60;;
1679;SDS011;838;51.794;12.258;2023-07-02T03:36:52;4.13;;;2.57;;
1679;SDS011;838;51.794;12.258;2023-07-02T03:39:18;4.90;;;2.57;;
1679;SDS011;838;51.794;12.258;2023-07-02T03:41:43;4.70;;;2.77;;
1679;SDS011;838;51.794;12.258;2023-07-02T03:44:09;3.97;;;2.20;;
1679;SDS011;838;51.794;12.258;2023-07-02T03:46:35;4.93;;;2.60;;
1679;SDS011;838;51.794;12.258;2023-07-02T03:49:04;4.13;;;2.60;;
1679;SDS011;838;51.794;12.258;2023-07-02T03:51:30;3.90;;;1.90;;
1679;SDS011;838;51.794;12.258;2023-07-02T03:53:58;3.80;;;2.33;;
1679;SDS011;838;51.794;12.258;2023-07-02T03:56:23;3.33;;;1.90;;
1679;SDS011;838;51.794;12.258;2023-07-02T03:58:49;3.30;;;2.00;;
1679;SDS011;838;51.794;12.258;2023-07-02T04:01:15;6.20;;;2.57;;
1679;SDS011;838;51.794;12.258;2023-07-02T04:03:49;3.93;;;2.30;;
1679;SDS011;838;51.794;12.258;2023-07-02T04:06:16;3.70;;;2.37;;
1679;SDS011;838;51.794;12.258;2023-07-02T04:08:42;4.13;;;2.30;;
1679;SDS011;838;51.794;12.258;2023-07-02T04:11:09;3.60;;;2.40;;
1679;SDS011;838;51.794;12.258;2023-07-02T04:13:35;3.50;;;2.10;;
1679;SDS011;838;51.794;12.258;2023-07-02T04:16:00;4.20;;;2.03;;
1679;SDS011;838;51.794;12.258;2023-07-02T04:18:26;3.80;;;2.00;;
1679;SDS011;838;51.794;12.258;2023-07-02T04:20:53;3.23;;;1.90;;
1679;SDS011;838;51.794;12.258;2023-07-02T04:23:19;3.10;;;1.57;;
1679;SDS011;838;51.794;12.258;2023-07-02T04:25:45;3.10;;;1.83;;
1679;SDS011;838;51.794;12.258;2023-07-02T04:28:11;5.43;;;2.70;;
1679;SDS011;838;51.794;12.258;2023-07-02T04:30:36;3.90;;;1.80;;
1679;SDS011;838;51.794;12.258;2023-07-02T04:33:02;5.03;;;2.13;;
1679;SDS011;838;51.794;12.258;2023-07-02T04:35:28;4.80;;;2.13;;
1679;SDS011;838;51.794;12.258;2023-07-02T04:37:54;3.70;;;1.90;;
1679;SDS011;838;51.794;12.258;2023-07-02T04:40:19;5.33;;;2.30;;
1679;SDS011;838;51.794;12.258;2023-07-02T04:42:45;3.67;;;1.80;;
1679;SDS011;838;51.794;12.258;2023-07-02T04:45:14;3.20;;;1.80;;
1679;SDS011;838;51.794;12.258;2023-07-02T04:47:44;3.47;;;1.90;;
1679;SDS011;838;51.794;12.258;2023-07-02T04:50:10;3.50;;;1.90;;
1679;SDS011;838;51.794;12.258;2023-07-02T04:52:37;4.37;;;2.10;;
1679;SDS011;838;51.794;12.258;2023-07-02T04:55:03;4.43;;;2.57;;
1679;SDS011;838;51.794;12.258;2023-07-02T04:57:30;4.30;;;1.93;;
1679;SDS011;838;51.794;12.258;2023-07-02T04:59:55;4.37;;;1.90;;
1679;SDS011;838;51.794;12.258;2023-07-02T05:02:22;3.47;;;1.60;;
1679;SDS011;838;51.794;12.258;2023-07-02T05:04:47;4.50;;;2.33;;
1679;SDS011;838;51.794;12.258;2023-07-02T05:07:13;3.40;;;1.80;;
1679;SDS011;838;51.794;12.258;2023-07-02T05:09:40;3.67;;;1.90;;
1679;SDS011;838;51.794;12.258;2023-07-02T05:12:06;2.97;;;1.63;;
1679;SDS011;838;51.794;12.258;2023-07-02T05:14:32;5.27;;;2.47;;
1679;SDS011;838;51.794;12.258;2023-07-02T05:16:57;3.80;;;2.00;;
1679;SDS011;838;51.794;12.258;2023-07-02T05:19:23;3.60;;;2.00;;
1679;SDS011;838;51.794;12.258;2023-07-02T05:21:48;3.33;;;1.77;;
1679;SDS011;838;51.794;12.258;2023-07-02T05:24:14;3.20;;;1.73;;
1679;SDS011;838;51.794;12.258;2023-07-02T05:26:40;3.50;;;1.97;;
1679;SDS011;838;51.794;12.258;2023-07-02T05:29:05;3.70;;;1.90;;
1679;SDS011;838;51.794;12.258;2023-07-02T05:31:31;3.73;;;2.30;;
1679;SDS011;838;51.794;12.258;2023-07-02T05:33:59;3.30;;;1.80;;
1679;SDS011;838;51.794;12.258;2023-07-02T05:36:25;3.37;;;1.60;;
1679;SDS011;838;51.794;12.258;2023-07-02T05:38:50;3.53;;;1.80;;
1679;SDS011;838;51.794;12.258;2023-07-02T05:41:22;4.57;;;2.30;;
1679;SDS011;838;51.794;12.258;2023-07-02T05:43:48;3.70;;;2.30;;
1679;SDS011;838;51.794;12.258;2023-07-02T05:46:14;4.07;;;2.10;;
1679;SDS011;838;51.794;12.258;2023-07-02T05:48:40;4.27;;;1.63;;
1679;SDS011;838;51.794;12.258;2023-07-02T05:51:07;3.70;;;2.00;;
1679;SDS011;838;51.794;12.258;2023-07-02T05:53:33;4.00;;;1.43;;
1679;SDS011;838;51.794;12.258;2023-07-02T05:55:59;4.57;;;1.60;;
1679;SDS011;838;51.794;12.258;2023-07-02T05:58:25;3.70;;;1.90;;
1679;SDS011;838;51.794;12.258;2023-07-02T06:00:50;3.37;;;1.77;;
1679;SDS011;838;51.794;12.258;2023-07-02T06:03:17;3.30;;;1.63;;
1679;SDS011;838;51.794;12.258;2023-07-02T06:05:48;3.30;;;1.90;;
1679;SDS011;838;51.794;12.258;2023-07-02T06:08:15;3.63;;;1.70;;
1679;SDS011;838;51.794;12.258;2023-07-02T06:10:41;3.73;;;1.83;;
1679;SDS011;838;51.794;12.258;2023-07-02T06:13:11;3.47;;;1.77;;
1679;SDS011;838;51.794;12.258;2023-07-02T06:15:36;3.30;;;1.70;;
1679;SDS011;838;51.794;12.258;2023-07-02T06:18:02;4.30;;;1.80;;
1679;SDS011;838;51.794;12.258;2023-07-02T06:20:28;4.30;;;1.87;;
1679;SDS011;838;51.794;12.258;2023-07-02T06:22:54;3.57;;;1.93;;
1679;SDS011;838;51.794;12.258;2023-07-02T06:25:19;4.10;;;2.47;;
1679;SDS011;838;51.794;12.258;2023-07-02T06:27:45;4.50;;;1.93;;
1679;SDS011;838;51.794;12.258;2023-07-02T06:30:11;4.27;;;2.37;;
1679;SDS011;838;51.794;12.258;2023-07-02T06:32:37;4.30;;;2.23;;
1679;SDS011;838;51.794;12.258;2023-07-02T06:35:03;3.63;;;2.37;;
1679;SDS011;838;51.794;12.258;2023-07-02T06:37:31;4.63;;;2.83;;
1679;SDS011;838;51.794;12.258;2023-07-02T06:39:57;5.73;;;2.57;;
1679;SDS011;838;51.794;12.258;2023-07-02T06:42:24;4.77;;;2.70;;
1679;SDS011;838;51.794;12.258;2023-07-02T06:44:49;4.13;;;2.87;;
1679;SDS011;838;51.794;12.258;2023-07-02T06:47:15;4.60;;;2.70;;
1679;SDS011;838;51.794;12.258;2023-07-02T06:49:41;4.30;;;3.20;;
1679;SDS011;838;51.794;12.258;2023-07-02T06:52:07;4.90;;;2.57;;
1679;SDS011;838;51.794;12.258;2023-07-02T06:54:33;4.80;;;3.10;;
1679;SDS011;838;51.794;12.258;2023-07-02T06:56:59;4.37;;;2.70;;
1679;SDS011;838;51.794;12.258;2023-07-02T06:59:25;4.10;;;2.70;;
1679;SDS011;838;51.794;12.258;2023-07-02T07:01:50;3.90;;;2.73;;
1679;SDS011;838;51.794;12.258;2023-07-02T07:04:16;4.30;;;2.20;;
1679;SDS011;838;51.794;12.258;2023-07-02T07:06:42;4.10;;;2.80;;
1679;SDS011;838;51.794;12.258;2023-07-02T07:09:08;3.83;;;2.83;;
1679;SDS011;838;51.794;12.258;2023-07-02T07:11:34;4.07;;;2.40;;
1679;SDS011;838;51.794;12.258;2023-07-02T07:14:00;4.07;;;2.60;;
1679;SDS011;838;51.794;12.258;2023-07-02T07:16:26;4.47;;;3.03;;
1679;SDS011;838;51.794;12.258;2023-07-02T07:18:58;4.00;;;3.17;;
1679;SDS011;838;51.794;12.258;2023-07-02T07:21:24;5.80;;;3.57;;
1679;SDS011;838;51.794;12.258;2023-07-02T07:23:49;4.87;;;3.70;;
1679;SDS011;838;51.794;12.258;2023-07-02T07:26:15;4.77;;;3.30;;
1679;SDS011;838;51.794;12.258;2023-07-02T07:28:41;3.80;;;2.80;;
1679;SDS011;838;51.794;12.258;2023-07-02T07:31:07;5.23;;;2.70;;
1679;SDS011;838;51.794;12.258;2023-07-02T07:33:33;4.07;;;3.03;;
1679;SDS011;838;51.794;12.258;2023-07-02T07:35:58;4.77;;;3.40;;
1679;SDS011;838;51.794;12.258;2023-07-02T07:38:25;4.80;;;3.10;;
1679;SDS011;838;51.794;12.258;2023-07-02T07:40:51;5.07;;;3.70;;
1679;SDS011;838;51.794;12.258;2023-07-02T07:43:16;4.67;;;3.50;;
1679;SDS011;838;51.794;12.258;2023-07-02T07:45:42;5.40;;;3.80;;
1679;SDS011;838;51.794;12.258;2023-07-02T07:48:08;5.00;;;3.23;;
1679;SDS011;838;51.794;12.258;2023-07-02T07:50:34;4.53;;;3.27;;
1679;SDS011;838;51.794;12.258;2023-07-02T07:52:59;5.43;;;3.37;;
1679;SDS011;838;51.794;12.258;2023-07-02T07:55:25;4.40;;;3.07;;
1679;SDS011;838;51.794;12.258;2023-07-02T07:57:51;4.60;;;3.40;;
1679;SDS011;838;51.794;12.258;2023-07-02T08:00:17;5.50;;;3.57;;
1679;SDS011;838;51.794;12.258;2023-07-02T08:02:50;5.10;;;3.30;;
1679;SDS011;838;51.794;12.258;2023-07-02T08:05:17;4.17;;;3.07;;
1679;SDS011;838;51.794;12.258;2023-07-02T08:07:43;3.87;;;2.70;;
1679;SDS011;838;51.794;12.258;2023-07-02T08:10:09;4.73;;;3.20;;
1679;SDS011;838;51.794;12.258;2023-07-02T08:12:35;4.57;;;2.70;;
1679;SDS011;838;51.794;12.258;2023-07-02T08:15:00;4.03;;;2.63;;
1679;SDS011;838;51.794;12.258;2023-07-02T08:17:26;4.10;;;2.77;;
1679;SDS011;838;51.794;12.258;2023-07-02T08:19:52;3.67;;;2.27;;
1679;SDS011;838;51.794;12.258;2023-07-02T08:22:18;4.67;;;2.70;;
1679;SDS011;838;51.794;12.258;2023-07-02T08:24:43;5.63;;;2.43;;
1679;SDS011;838;51.794;12.258;2023-07-02T08:27:09;4.13;;;2.70;;
1679;SDS011;838;51.794;12.258;2023-07-02T08:29:38;3.90;;;2.70;;
1679;SDS011;838;51.794;12.258;2023-07-02T08:32:04;4.80;;;3.30;;
1679;SDS011;838;51.794;12.258;2023-07-02T08:34:30;4.83;;;3.30;;
1679;SDS011;838;51.794;12.258;2023-07-02T08:36:56;11.83;;;3.33;;
1679;SDS011;838;51.794;12.258;2023-07-02T08:39:22;5.40;;;3.20;;
1679;SDS011;838;51.794;12.258;2023-07-02T08:41:48;5.80;;;3.73;;
1679;SDS011;838;51.794;12.258;2023-07-02T08:44:14;5.97;;;3.40;;
1679;SDS011;838;51.794;12.258;2023-07-02T08:46:44;7.60;;;3.77;;
1679;SDS011;838;51.794;12.258;2023-07-02T08:49:10;7.83;;;3.70;;
1679;SDS011;838;51.794;12.258;2023-07-02T08:51:36;6.47;;;3.60;;
1679;SDS011;838;51.794;12.258;2023-07-02T08:54:02;6.07;;;3.73;;
1679;SDS011;838;51.794;12.258;2023-07-02T08:56:29;6.00;;;3.30;;
1679;SDS011;838;51.794;12.258;2023-07-02T08:58:55;7.17;;;3.90;;
1679;SDS011;838;51.794;12.258;2023-07-02T09:01:21;5.90;;;3.50;;
1679;SDS011;838;51.794;12.258;2023-07-02T09:03:46;8.87;;;4.93;;
1679;SDS011;838;51.794;12.258;2023-07-02T09:06:16;7.70;;;3.93;;
1679;SDS011;838;51.794;12.258;2023-07-02T09:08:43;6.03;;;2.90;;
1679;SDS011;838;51.794;12.258;2023-07-02T09:11:13;9.90;;;3.87;;
1679;SDS011;838;51.794;12.258;2023-07-02T09:13:44;9.10;;;4.07;;
1679;SDS011;838;51.794;12.258;2023-07-02T09:19:33;6.83;;;3.97;;
1679;SDS011;838;51.794;12.258;2023-07-02T09:22:00;8.37;;;3.10;;
1679;SDS011;838;51.794;12.258;2023-07-02T09:24:28;7.37;;;3.13;;
1679;SDS011;838;51.794;12.258;2023-07-02T09:26:56;7.17;;;3.20;;
1679;SDS011;838;51.794;12.258;2023-07-02T09:31:53;6.60;;;3.70;;
1679;SDS011;838;51.794;12.258;2023-07-02T09:34:25;7.47;;;3.93;;
1679;SDS011;838;51.794;12.258;2023-07-02T09:36:56;8.40;;;4.10;;
1679;SDS011;838;51.794;12.258;2023-07-02T09:39:29;5.67;;;3.40;;
1679;SDS011;838;51.794;12.258;2023-07-02T09:41:57;7.97;;;3.70;;
1679;SDS011;838;51.794;12.258;2023-07-02T09:47:04;6.70;;;3.47;;
1679;SDS011;838;51.794;12.258;2023-07-02T09:49:33;6.00;;;3.37;;
1679;SDS011;838;51.794;12.258;2023-07-02T09:52:01;7.23;;;4.13;;
1679;SDS011;838;51.794;12.258;2023-07-02T09:54:28;7.87;;;3.37;;
1679;SDS011;838;51.794;12.258;2023-07-02T09:56:55;7.67;;;3.57;;
1679;SDS011;838;51.794;12.258;2023-07-02T09:59:24;7.33;;;3.90;;
1679;SDS011;838;51.794;12.258;2023-07-02T10:01:51;8.27;;;3.17;;
1679;SDS011;838;51.794;12.258;2023-07-02T10:04:17;6.90;;;3.60;;
1679;SDS011;838;51.794;12.258;2023-07-02T10:09:17;6.07;;;3.17;;
1679;SDS011;838;51.794;12.258;2023-07-02T10:11:44;6.80;;;3.73;;
1679;SDS011;838;51.794;12.258;2023-07-02T10:14:10;7.33;;;3.87;;
1679;SDS011;838;51.794;12.258;2023-07-02T10:16:49;5.60;;;3.50;;
1679;SDS011;838;51.794;12.258;2023-07-02T10:19:16;6.10;;;4.30;;
1679;SDS011;838;51.794;12.258;2023-07-02T10:21:41;6.70;;;3.60;;
1679;SDS011;838;51.794;12.258;2023-07-02T10:24:14;5.63;;;3.97;;
1679;SDS011;838;51.794;12.258;2023-07-02T10:27:00;7.80;;;3.50;;
1679;SDS011;838;51.794;12.258;2023-07-02T10:29:28;6.30;;;3.77;;
1679;SDS011;838;51.794;12.258;2023-07-02T10:31:54;7.80;;;3.90;;
1679;SDS011;838;51.794;12.258;2023-07-02T10:34:34;6.57;;;3.30;;
1679;SDS011;838;51.794;12.258;2023-07-02T10:37:01;7.40;;;4.20;;
1679;SDS011;838;51.794;12.258;2023-07-02T10:39:30;8.60;;;4.63;;
1679;SDS011;838;51.794;12.258;2023-07-02T10:42:06;6.00;;;3.83;;
1679;SDS011;838;51.794;12.258;2023-07-02T10:44:33;7.60;;;4.23;;
1679;SDS011;838;51.794;12.258;2023-07-02T10:47:00;9.17;;;4.03;;
1679;SDS011;838;51.794;12.258;2023-07-02T10:49:32;9.17;;;4.33;;
1679;SDS011;838;51.794;12.258;2023-07-02T10:52:01;7.57;;;4.10;;
1679;SDS011;838;51.794;12.258;2023-07-02T10:54:42;6.60;;;3.80;;
1679;SDS011;838;51.794;12.258;2023-07-02T10:57:09;6.87;;;4.40;;
1679;SDS011;838;51.794;12.258;2023-07-02T10:59:36;7.13;;;4.00;;
1679;SDS011;838;51.794;12.258;2023-07-02T11:02:02;8.23;;;4.60;;
1679;SDS011;838;51.794;12.258;2023-07-02T11:04:32;7.23;;;3.67;;
1679;SDS011;838;51.794;12.258;2023-07-02T11:06:59;7.20;;;3.97;;
1679;SDS011;838;51.794;12.258;2023-07-02T11:09:25;6.70;;;4.37;;
1679;SDS011;838;51.794;12.258;2023-07-02T11:11:52;9.00;;;4.07;;
1679;SDS011;838;51.794;12.258;2023-07-02T11:14:30;6.97;;;4.07;;
1679;SDS011;838;51.794;12.258;2023-07-02T11:16:57;7.10;;;3.80;;
1679;SDS011;838;51.794;12.258;2023-07-02T11:19:25;7.40;;;4.13;;
1679;SDS011;838;51.794;12.258;2023-07-02T11:21:54;6.13;;;3.53;;
1679;SDS011;838;51.794;12.258;2023-07-02T11:26:54;8.20;;;3.77;;
1679;SDS011;838;51.794;12.258;2023-07-02T11:29:20;8.37;;;3.93;;
1679;SDS011;838;51.794;12.258;2023-07-02T11:31:47;6.87;;;4.50;;
1679;SDS011;838;51.794;12.258;2023-07-02T11:34:17;7.50;;;4.87;;
1679;SDS011;838;51.794;12.258;2023-07-02T11:36:44;10.50;;;4.50;;
1679;SDS011;838;51.794;12.258;2023-07-02T11:39:10;8.93;;;4.30;;
1679;SDS011;838;51.794;12.258;2023-07-02T11:41:37;8.67;;;4.20;;
1679;SDS011;838;51.794;12.258;2023-07-02T11:44:03;10.30;;;4.33;;
1679;SDS011;838;51.794;12.258;2023-07-02T11:46:29;8.07;;;4.13;;
1679;SDS011;838;51.794;12.258;2023-07-02T11:48:55;9.10;;;4.47;;
1679;SDS011;838;51.794;12.258;2023-07-02T11:51:21;9.07;;;5.00;;
1679;SDS011;838;51.794;12.258;2023-07-02T11:53:47;6.53;;;4.30;;
1679;SDS011;838;51.794;12.258;2023-07-02T11:56:12;9.77;;;4.70;;
1679;SDS011;838;51.794;12.258;2023-07-02T11:58:39;8.23;;;4.80;;
1679;SDS011;838;51.794;12.258;2023-07-02T12:01:05;6.40;;;4.23;;
1679;SDS011;838;51.794;12.258;2023-07-02T12:03:30;7.27;;;4.00;;
1679;SDS011;838;51.794;12.258;2023-07-02T12:05:56;7.17;;;3.83;;
1679;SDS011;838;51.794;12.258;2023-07-02T12:08:22;7.57;;;4.30;;
1679;SDS011;838;51.794;12.258;2023-07-02T12:10:48;11.53;;;5.10;;
1679;SDS011;838;51.794;12.258;2023-07-02T12:13:13;10.20;;;4.03;;
1679;SDS011;838;51.794;12.258;2023-07-02T12:15:39;7.57;;;3.90;;
1679;SDS011;838;51.794;12.258;2023-07-02T12:18:05;6.83;;;4.60;;
1679;SDS011;838;51.794;12.258;2023-07-02T12:20:32;7.20;;;4.53;;
1679;SDS011;838;51.794;12.258;2023-07-02T12:22:57;7.90;;;5.00;;
1679;SDS011;838;51.794;12.258;2023-07-02T12:25:23;8.57;;;5.23;;
1679;SDS011;838;51.794;12.258;2023-07-02T12:27:49;6.33;;;4.03;;
1679;SDS011;838;51.794;12.258;2023-07-02T12:30:14;7.07;;;4.70;;
1679;SDS011;838;51.794;12.258;2023-07-02T12:32:42;11.00;;;4.90;;
1679;SDS011;838;51.794;12.258;2023-07-02T12:35:09;9.03;;;4.43;;
1679;SDS011;838;51.794;12.258;2023-07-02T12:37:35;9.50;;;4.70;;
1679;SDS011;838;51.794;12.258;2023-07-02T12:40:07;7.63;;;4.57;;
1679;SDS011;838;51.794;12.258;2023-07-02T12:42:33;10.33;;;5.67;;
1679;SDS011;838;51.794;12.258;2023-07-02T12:44:59;11.50;;;5.57;;
1679;SDS011;838;51.794;12.258;2023-07-02T12:47:25;7.23;;;4.60;;
1679;SDS011;838;51.794;12.258;2023-07-02T12:49:51;7.83;;;5.63;;
1679;SDS011;838;51.794;12.258;2023-07-02T12:52:17;10.10;;;5.50;;
1679;SDS011;838;51.794;12.258;2023-07-02T12:54:42;8.87;;;4.53;;
1679;SDS011;838;51.794;12.258;2023-07-02T12:57:08;9.60;;;5.07;;
1679;SDS011;838;51.794;12.258;2023-07-02T12:59:37;7.13;;;4.43;;
1679;SDS011;838;51.794;12.258;2023-07-02T13:02:02;8.10;;;4.87;;
1679;SDS011;838;51.794;12.258;2023-07-02T13:04:28;9.80;;;5.27;;
1679;SDS011;838;51.794;12.258;2023-07-02T13:06:54;6.30;;;4.50;;
1679;SDS011;838;51.794;12.258;2023-07-02T13:09:20;10.70;;;5.27;;
1679;SDS011;838;51.794;12.258;2023-07-02T13:11:46;9.10;;;4.97;;
1679;SDS011;838;51.794;12.258;2023-07-02T13:14:11;7.17;;;4.10;;
1679;SDS011;838;51.794;12.258;2023-07-02T13:16:37;6.50;;;4.03;;
1679;SDS011;838;51.794;12.258;2023-07-02T13:19:03;8.10;;;4.30;;
1679;SDS011;838;51.794;12.258;2023-07-02T13:21:28;7.13;;;4.27;;
1679;SDS011;838;51.794;12.258;2023-07-02T13:23:54;7.23;;;4.70;;
1679;SDS011;838;51.794;12.258;2023-07-02T13:26:20;9.03;;;4.90;;
1679;SDS011;838;51.794;12.258;2023-07-02T13:28:46;6.90;;;4.50;;
1679;SDS011;838;51.794;12.258;2023-07-02T13:31:13;8.20;;;4.80;;
1679;SDS011;838;51.794;12.258;2023-07-02T13:33:39;7.67;;;4.53;;
1679;SDS011;838;51.794;12.258;2023-07-02T13:36:05;9.00;;;4.37;;
1679;SDS011;838;51.794;12.258;2023-07-02T13:38:31;8.50;;;4.73;;
1679;SDS011;838;51.794;12.258;2023-07-02T13:40:58;10.10;;;4.80;;
1679;SDS011;838;51.794;12.258;2023-07-02T13:43:24;8.17;;;4.63;;
1679;SDS011;838;51.794;12.258;2023-07-02T13:45:50;9.60;;;5.27;;
1679;SDS011;838;51.794;12.258;2023-07-02T13:48:15;10.03;;;5.00;;
1679;SDS011;838;51.794;12.258;2023-07-02T13:50:41;7.97;;;4.83;;
1679;SDS011;838;51.794;12.258;2023-07-02T13:53:07;9.17;;;4.90;;
1679;SDS011;838;51.794;12.258;2023-07-02T13:55:34;9.43;;;5.50;;
1679;SDS011;838;51.794;12.258;2023-07-02T13:57:59;10.73;;;5.00;;
1679;SDS011;838;51.794;12.258;2023-07-02T14:00:28;10.50;;;4.70;;
1679;SDS011;838;51.794;12.258;2023-07-02T14:02:54;9.30;;;4.50;;
1679;SDS011;838;51.794;12.258;2023-07-02T14:05:21;6.50;;;4.37;;
1679;SDS011;838;51.794;12.258;2023-07-02T14:07:47;9.43;;;5.40;;
1679;SDS011;838;51.794;12.258;2023-07-02T14:10:13;7.90;;;3.67;;
1679;SDS011;838;51.794;12.258;2023-07-02T14:12:40;8.10;;;5.10;;
1679;SDS011;838;51.794;12.258;2023-07-02T14:15:07;9.50;;;4.97;;
1679;SDS011;838;51.794;12.258;2023-07-02T14:17:34;8.60;;;5.03;;
1679;SDS011;838;51.794;12.258;2023-07-02T14:19:59;7.90;;;4.43;;
1679;SDS011;838;51.794;12.258;2023-07-02T14:22:26;10.90;;;4.80;;
1679;SDS011;838;51.794;12.258;2023-07-02T14:24:51;7.20;;;4.80;;
1679;SDS011;838;51.794;12.258;2023-07-02T14:27:18;6.20;;;3.90;;
1679;SDS011;838;51.794;12.258;2023-07-02T14:29:44;8.53;;;4.57;;
1679;SDS011;838;51.794;12.258;2023-07-02T14:32:12;8.83;;;4.40;;
1679;SDS011;838;51.794;12.258;2023-07-02T14:34:39;12.23;;;5.60;;
1679;SDS011;838;51.794;12.258;2023-07-02T14:37:05;6.63;;;4.10;;
1679;SDS011;838;51.794;12.258;2023-07-02T14:39:31;7.20;;;4.60;;
1679;SDS011;838;51.794;12.258;2023-07-02T14:41:57;8.47;;;5.43;;
1679;SDS011;838;51.794;12.258;2023-07-02T14:44:23;10.67;;;4.97;;
1679;SDS011;838;51.794;12.258;2023-07-02T14:46:49;8.47;;;4.33;;
1679;SDS011;838;51.794;12.258;2023-07-02T14:49:14;8.83;;;4.50;;
1679;SDS011;838;51.794;12.258;2023-07-02T14:51:40;9.43;;;5.80;;
1679;SDS011;838;51.794;12.258;2023-07-02T14:54:06;8.40;;;4.33;;
1679;SDS011;838;51.794;12.258;2023-07-02T14:56:33;11.50;;;5.40;;
1679;SDS011;838;51.794;12.258;2023-07-02T14:59:02;8.00;;;4.47;;
1679;SDS011;838;51.794;12.258;2023-07-02T15:01:27;6.90;;;4.60;;
1679;SDS011;838;51.794;12.258;2023-07-02T15:03:53;7.00;;;4.93;;
1679;SDS011;838;51.794;12.258;2023-07-02T15:06:19;9.83;;;4.33;;
1679;SDS011;838;51.794;12.258;2023-07-02T15:08:46;7.23;;;4.50;;
1679;SDS011;838;51.794;12.258;2023-07-02T15:11:12;7.30;;;4.10;;
1679;SDS011;838;51.794;12.258;2023-07-02T15:13:39;9.00;;;4.03;;
1679;SDS011;838;51.794;12.258;2023-07-02T15:16:06;10.30;;;4.07;;
1679;SDS011;838;51.794;12.258;2023-07-02T15:18:33;8.13;;;4.20;;
1679;SDS011;838;51.794;12.258;2023-07-02T15:20:59;7.33;;;3.63;;
1679;SDS011;838;51.794;12.258;2023-07-02T15:23:27;8.07;;;4.23;;
1679;SDS011;838;51.794;12.258;2023-07-02T15:25:57;8.57;;;4.63;;